Terminal Aerodrome Forecast
Issued by NWS Boston, MA

Home | Current Version | Previous Version | Text Only | Print | Product List | Glossary On
Versions: 1 2 3 4 5 6 7 8 9 10 11 12 13 14 15 16 17 18 19 20 21 22 23 24
000
FTUS41 KBOX 250529
TAFBOS
TAF
KBOS 250529Z 2506/2612 09005KT P6SM BKN150
     FM251100 07010G17KT P6SM VCSH OVC090
     FM251300 07012G20KT 5SM -RA BR OVC045
     FM251500 08015G20KT 2SM -RA BR OVC015
     FM252000 07013G21KT 2SM BR VCSH OVC008
     FM260200 06011KT 1SM -RA BR OVC003=

USA.gov is the U.S. government's official web portal to all federal, state and local government web resources and services.